»·PEaware :: N815M KSNA-KCRQ

N815M :: KSNA-KCRQ

FLIGHT INFORMATION

Flight Status: Arrived
Operator: Privately registered:
United States
More flights under this callsign
Pilot: Robert C. (30425)
Aircraft: BEECH AIRCRAFT DEBONAIR BONANZA
(BE33)
More flights by this aircraft type
Origin: KSNA John Wayne-Orange Co
United States
Destination: KCRQ McClellan-Palomar
United States
More flights between these airports :: More routes between these airports
Route: V23 OCN
File this flight plan on PilotEdge
Remarks:
Altitude:
(Current/Filed)
5,000ft
Speed:
(Current/Filed)
150kts
Departed: 13-Sep-20 08:01 AM
Arrived: 13-Sep-20 08:34 AM
Distance/Time
Traveled:
44nm/0:33
Distance/Time
To Go:
Arrived

Flight Plot

Page will automatically refresh every two minutes.


Map Options




Map Legend


Flown Route
Filed Route
Departure Airport
Arrival Airport
Navaid (VOR, NDB)
Fix

Horizontal Profiles

Position Reports

Time Latitude Longitude Heading Altitude Ground
Speed
13-Sep-20 07:42 33.676084 -117.870905 219 60ft 0kts
13-Sep-20 07:43 33.676084 -117.870905 219 60ft 0kts
13-Sep-20 07:44 33.676084 -117.870905 219 60ft 0kts
13-Sep-20 07:45 33.676084 -117.870905 219 60ft 0kts
13-Sep-20 07:46 33.676084 -117.870905 219 60ft 0kts
13-Sep-20 07:47 33.676084 -117.870905 219 60ft 0kts
13-Sep-20 07:48 33.676084 -117.870905 219 60ft 0kts
13-Sep-20 07:49 33.676084 -117.870905 219 60ft 0kts
13-Sep-20 07:50 33.676084 -117.870905 219 60ft 0kts
13-Sep-20 07:51 33.676084 -117.870905 219 60ft 0kts
13-Sep-20 07:52 33.676084 -117.870905 219 60ft 0kts
13-Sep-20 07:53 33.676084 -117.870905 219 60ft 0kts
13-Sep-20 07:54 33.676084 -117.870905 219 60ft 0kts
13-Sep-20 07:55 33.676027 -117.870917 170 60ft 3kts
13-Sep-20 07:56 33.676387 -117.869868 27 60ft 15kts
13-Sep-20 07:57 33.680662 -117.867387 30 60ft 6kts
13-Sep-20 07:58 33.681239 -117.866541 105 59ft 0kts
13-Sep-20 07:59 33.680966 -117.865889 126 60ft 10kts
13-Sep-20 08:00 33.662389 -117.877063 194 278ft 107kts
13-Sep-20 08:01 33.627447 -117.884341 187 942ft 143kts
13-Sep-20 08:02 33.587595 -117.892839 187 1743ft 143kts
13-Sep-20 08:03 33.562640 -117.863698 125 2633ft 133kts
13-Sep-20 08:04 33.547036 -117.825372 104 3531ft 129kts
13-Sep-20 08:05 33.539461 -117.783931 101 4422ft 125kts
13-Sep-20 08:06 33.516920 -117.753532 141 5006ft 140kts
13-Sep-20 08:07 33.482375 -117.723628 141 4990ft 161kts
13-Sep-20 08:08 33.445113 -117.692352 141 5002ft 161kts
13-Sep-20 08:09 33.408938 -117.662045 141 5006ft 157kts
13-Sep-20 08:10 33.379753 -117.624679 124 5008ft 154kts
13-Sep-20 08:11 33.356430 -117.582591 100 5022ft 150kts
13-Sep-20 08:12 33.345706 -117.533807 101 5009ft 151kts
13-Sep-20 08:13 33.335085 -117.485155 101 5008ft 148kts
13-Sep-20 08:14 33.324704 -117.437659 101 5008ft 147kts
13-Sep-20 08:15 33.314323 -117.390157 101 5000ft 147kts
13-Sep-20 08:16 33.304001 -117.343158 102 4995ft 140kts
13-Sep-20 08:17 33.294289 -117.299297 102 4999ft 134kts
13-Sep-20 08:18 33.284672 -117.255886 102 4997ft 134kts
13-Sep-20 08:19 33.275072 -117.212508 102 4995ft 134kts
13-Sep-20 08:20 33.265484 -117.169136 101 4993ft 134kts
13-Sep-20 08:21 33.255907 -117.125765 101 4992ft 134kts
13-Sep-20 08:22 33.246401 -117.082654 101 4995ft 134kts
13-Sep-20 08:23 33.229474 -117.043658 140 4816ft 148kts
13-Sep-20 08:24 33.196329 -117.014113 140 3776ft 145kts
13-Sep-20 08:25 33.166958 -116.987853 148 3599ft 121kts
13-Sep-20 08:26 33.151744 -117.010348 279 3604ft 109kts
13-Sep-20 08:27 33.155630 -117.045903 279 3600ft 106kts
13-Sep-20 08:28 33.158135 -117.081145 270 3599ft 109kts
13-Sep-20 08:29 33.153209 -117.124913 260 3017ft 157kts
13-Sep-20 08:30 33.144581 -117.178759 259 2074ft 169kts
13-Sep-20 08:31 33.135993 -117.232009 259 1113ft 147kts
13-Sep-20 08:32 33.129834 -117.269962 256 405ft 111kts
13-Sep-20 08:33 33.128409 -117.282796 348 324ft 7kts
13-Sep-20 08:34 33.128728 -117.282542 77 322ft 9kts
13-Sep-20 08:35 33.129487 -117.279737 76 311ft 1kts

Navigation Log

Ident Type
Flight plan parsing failed, navigation log unavailable